createdAt,value
2018-08-30T00:00:26.167Z,18.60
2018-08-30T00:02:54.672Z,18.60
2018-08-30T00:05:25.402Z,18.50
2018-08-30T00:07:53.574Z,18.50
2018-08-30T00:10:25.054Z,18.50
2018-08-30T00:12:54.250Z,18.50
2018-08-30T00:15:22.376Z,18.50
2018-08-30T00:17:50.643Z,18.50
2018-08-30T00:20:18.812Z,18.40
2018-08-30T00:22:46.963Z,18.40
2018-08-30T00:25:15.070Z,18.40
2018-08-30T00:27:43.202Z,18.30
2018-08-30T00:30:11.336Z,18.40
2018-08-30T00:32:39.491Z,18.30
2018-08-30T00:35:07.626Z,18.30
2018-08-30T00:37:35.802Z,18.30
2018-08-30T00:40:04.890Z,18.20
2018-08-30T00:42:34.152Z,18.20
2018-08-30T00:45:02.487Z,18.20
2018-08-30T00:47:30.797Z,18.20
2018-08-30T00:49:58.990Z,18.20
2018-08-30T00:52:27.279Z,18.10
2018-08-30T00:54:55.410Z,18.10
2018-08-30T00:57:23.558Z,18.10
2018-08-30T00:59:51.700Z,18.10
2018-08-30T01:02:19.857Z,18.10
2018-08-30T01:04:48.146Z,18.10
2018-08-30T01:07:16.799Z,18.10
2018-08-30T01:09:45.011Z,18.10
2018-08-30T01:12:14.142Z,18.10
2018-08-30T01:14:43.052Z,18.10
2018-08-30T01:17:11.196Z,18.10
2018-08-30T01:19:39.370Z,18.00
2018-08-30T01:22:07.470Z,18.00
2018-08-30T01:24:35.620Z,18.00
2018-08-30T01:27:03.710Z,18.00
2018-08-30T01:29:31.938Z,18.00
2018-08-30T01:32:00.139Z,17.90
2018-08-30T01:34:28.513Z,17.90
2018-08-30T01:36:56.675Z,17.80
2018-08-30T01:39:25.710Z,17.80
2018-08-30T01:41:53.868Z,17.80
2018-08-30T01:44:22.059Z,17.70
2018-08-30T01:46:50.248Z,17.70
2018-08-30T01:49:19.942Z,17.70
2018-08-30T01:51:48.134Z,17.60
2018-08-30T01:54:16.276Z,17.60
2018-08-30T01:56:44.602Z,17.60
2018-08-30T01:59:12.753Z,17.60
2018-08-30T02:01:40.896Z,17.60
2018-08-30T02:04:09.296Z,17.60
2018-08-30T02:06:37.544Z,17.60
2018-08-30T02:09:05.830Z,17.50
2018-08-30T02:11:34.030Z,17.50
2018-08-30T02:14:02.268Z,17.50
2018-08-30T02:16:30.662Z,17.50
2018-08-30T02:18:58.892Z,17.50
2018-08-30T02:21:28.026Z,17.40
2018-08-30T02:23:56.249Z,17.40
2018-08-30T02:26:25.302Z,17.40
2018-08-30T02:28:53.444Z,17.40
2018-08-30T02:31:21.576Z,17.30
2018-08-30T02:33:50.226Z,17.30
2018-08-30T02:36:18.430Z,17.20
2018-08-30T02:38:46.716Z,17.20
2018-08-30T02:41:15.054Z,17.20
2018-08-30T02:43:43.186Z,17.20
2018-08-30T02:46:14.072Z,17.20
2018-08-30T02:48:43.436Z,17.10
2018-08-30T02:51:11.616Z,17.10
2018-08-30T02:53:39.744Z,17.10
2018-08-30T02:56:07.936Z,17.10
2018-08-30T02:58:37.452Z,17.10
2018-08-30T03:01:05.752Z,17.10
2018-08-30T03:03:33.858Z,17.00
2018-08-30T03:06:02.054Z,17.00
2018-08-30T03:08:30.240Z,17.00
2018-08-30T03:10:58.382Z,17.00
2018-08-30T03:13:26.554Z,17.00
2018-08-30T03:15:56.220Z,17.00
2018-08-30T03:18:24.537Z,17.00
2018-08-30T03:20:52.754Z,17.00
2018-08-30T03:23:21.130Z,17.00
2018-08-30T03:25:49.308Z,16.90
2018-08-30T03:28:18.998Z,17.00
2018-08-30T03:30:48.357Z,16.90
2018-08-30T03:33:16.445Z,16.90
2018-08-30T03:35:44.665Z,16.90
2018-08-30T03:38:12.840Z,16.90
2018-08-30T03:40:41.796Z,17.00
2018-08-30T03:43:10.108Z,17.00
2018-08-30T03:45:38.780Z,17.00
2018-08-30T03:48:07.588Z,17.00
2018-08-30T03:50:35.946Z,17.00
2018-08-30T03:53:04.300Z,16.90
2018-08-30T03:55:32.440Z,17.00
2018-08-30T03:58:00.623Z,16.90
2018-08-30T04:00:28.818Z,16.90
2018-08-30T04:02:57.312Z,16.90
2018-08-30T04:05:26.311Z,17.00
2018-08-30T04:07:54.444Z,17.00
2018-08-30T04:10:22.685Z,17.00
2018-08-30T04:12:51.325Z,17.00
2018-08-30T04:15:19.528Z,17.10
2018-08-30T04:17:47.766Z,17.10
2018-08-30T04:20:15.975Z,17.10
2018-08-30T04:22:44.111Z,17.10
2018-08-30T04:25:13.383Z,17.10
2018-08-30T04:27:43.209Z,17.10
2018-08-30T04:30:11.336Z,17.10
2018-08-30T04:32:39.795Z,17.10
2018-08-30T04:35:09.103Z,17.10
2018-08-30T04:37:37.596Z,17.20
2018-08-30T04:40:05.813Z,17.30
2018-08-30T04:42:34.029Z,17.30
2018-08-30T04:45:02.202Z,17.50
2018-08-30T04:47:30.372Z,17.60
2018-08-30T04:49:59.438Z,17.70
2018-08-30T04:52:27.593Z,17.80
2018-08-30T04:54:55.833Z,17.90
2018-08-30T04:57:23.992Z,17.90
2018-08-30T04:59:53.463Z,18.00
2018-08-30T05:02:22.961Z,18.00
2018-08-30T05:04:51.203Z,18.00
2018-08-30T05:07:19.411Z,18.00
2018-08-30T05:09:47.720Z,18.10
2018-08-30T05:12:15.918Z,18.10
2018-08-30T05:14:44.078Z,18.20
2018-08-30T05:17:12.450Z,18.30
2018-08-30T05:19:40.658Z,18.30
2018-08-30T05:22:08.903Z,18.40
2018-08-30T05:24:38.663Z,18.40
2018-08-30T05:27:07.100Z,18.40
2018-08-30T05:29:36.423Z,18.40
2018-08-30T05:32:05.724Z,18.40
2018-08-30T05:34:33.844Z,18.40
2018-08-30T05:37:02.072Z,18.40
2018-08-30T05:39:31.404Z,18.40
2018-08-30T05:42:00.430Z,18.40
2018-08-30T05:44:29.080Z,18.40
2018-08-30T05:46:57.220Z,18.40
2018-08-30T05:49:25.344Z,18.40
2018-08-30T05:51:53.520Z,18.40
2018-08-30T05:54:22.250Z,18.50
2018-08-30T05:56:50.453Z,18.50
2018-08-30T05:59:18.574Z,18.60
2018-08-30T06:01:46.781Z,18.70
2018-08-30T06:04:14.891Z,18.80
2018-08-30T06:06:44.200Z,18.90
2018-08-30T06:09:12.378Z,19.00
2018-08-30T06:11:40.594Z,19.00
2018-08-30T06:14:08.870Z,19.10
2018-08-30T06:16:37.022Z,19.10
2018-08-30T06:19:05.238Z,19.20
2018-08-30T06:21:33.387Z,19.30
2018-08-30T06:24:01.565Z,19.50
2018-08-30T06:26:29.734Z,19.60
2018-08-30T06:28:59.426Z,19.70
2018-08-30T06:31:27.832Z,19.80
2018-08-30T06:33:56.617Z,19.90
2018-08-30T06:36:24.762Z,20.10
2018-08-30T06:38:52.933Z,20.20
2018-08-30T06:41:21.102Z,20.10
2018-08-30T06:43:49.349Z,20.10
2018-08-30T06:46:17.489Z,20.10
2018-08-30T06:48:45.644Z,20.00
2018-08-30T06:51:13.866Z,20.10
2018-08-30T06:53:42.054Z,20.10
2018-08-30T06:56:10.276Z,20.20
2018-08-30T06:58:38.432Z,20.30
2018-08-30T07:01:06.672Z,20.40
2018-08-30T07:03:34.828Z,20.40
2018-08-30T07:06:04.418Z,20.50
2018-08-30T07:08:32.567Z,20.50
2018-08-30T07:11:00.670Z,20.60
2018-08-30T07:13:29.524Z,20.60
2018-08-30T07:15:57.661Z,20.60
2018-08-30T07:18:25.984Z,20.60
2018-08-30T07:20:54.348Z,20.40
2018-08-30T07:23:22.478Z,20.30
2018-08-30T07:25:50.611Z,20.10
2018-08-30T07:28:18.905Z,20.10
2018-08-30T07:30:47.046Z,20.00
2018-08-30T07:33:15.324Z,20.00
2018-08-30T07:35:43.634Z,20.10
2018-08-30T07:38:11.796Z,20.10
2018-08-30T07:40:40.776Z,20.20
2018-08-30T07:43:08.913Z,20.30
2018-08-30T07:45:37.293Z,20.40
2018-08-30T07:48:05.488Z,20.40
2018-08-30T07:50:33.616Z,20.30
2018-08-30T07:53:01.781Z,20.20
2018-08-30T07:55:29.947Z,20.20
2018-08-30T07:57:58.150Z,20.30
2018-08-30T08:00:26.498Z,20.40
2018-08-30T08:02:55.281Z,20.60
2018-08-30T08:05:23.642Z,20.60
2018-08-30T08:07:51.779Z,20.60
2018-08-30T08:10:20.022Z,20.50
2018-08-30T08:12:48.284Z,20.50
2018-08-30T08:15:16.516Z,20.50
2018-08-30T08:17:44.926Z,20.40
2018-08-30T08:20:13.057Z,20.30
2018-08-30T08:22:41.254Z,20.20
2018-08-30T08:25:10.587Z,20.10
2018-08-30T08:27:39.335Z,20.00
2018-08-30T08:30:07.972Z,19.80
2018-08-30T08:32:36.105Z,19.60
2018-08-30T08:35:04.445Z,19.50
2018-08-30T08:37:32.576Z,19.50
2018-08-30T08:40:00.713Z,19.40
2018-08-30T08:42:28.885Z,19.40
2018-08-30T08:44:57.225Z,19.40
2018-08-30T08:47:25.567Z,19.40
2018-08-30T08:49:53.708Z,19.30
2018-08-30T08:52:21.969Z,19.40
2018-08-30T08:54:50.231Z,19.40
2018-08-30T08:57:18.505Z,19.50
2018-08-30T08:59:46.684Z,19.50
2018-08-30T09:02:14.971Z,19.50
2018-08-30T09:04:43.167Z,19.50
2018-08-30T09:07:11.375Z,19.60
2018-08-30T09:09:39.488Z,19.60
2018-08-30T09:12:08.200Z,19.60
2018-08-30T09:14:36.358Z,19.70
2018-08-30T09:17:05.100Z,19.80
2018-08-30T09:19:33.261Z,19.90
2018-08-30T09:22:01.409Z,20.20
2018-08-30T09:24:29.559Z,20.40
2018-08-30T09:26:57.775Z,20.40
2018-08-30T09:29:25.900Z,20.40
2018-08-30T09:31:54.172Z,20.40
2018-08-30T09:34:22.333Z,20.30
2018-08-30T09:36:50.459Z,20.30
2018-08-30T09:39:18.865Z,20.20
2018-08-30T09:41:47.015Z,20.20
2018-08-30T09:44:15.299Z,20.20
2018-08-30T09:46:43.647Z,20.20
2018-08-30T09:49:11.773Z,20.20
2018-08-30T09:51:40.090Z,20.20
2018-08-30T09:54:08.211Z,20.10
2018-08-30T09:56:36.580Z,20.00
2018-08-30T09:59:04.908Z,19.90
2018-08-30T10:01:39.366Z,19.90
2018-08-30T10:04:08.066Z,19.90
2018-08-30T10:06:36.455Z,19.80
2018-08-30T10:09:08.021Z,19.70
2018-08-30T10:11:36.869Z,19.60
2018-08-30T10:14:05.226Z,19.50
2018-08-30T10:16:34.923Z,19.50
2018-08-30T10:19:03.171Z,19.50
2018-08-30T10:21:31.376Z,19.50
2018-08-30T10:23:59.462Z,19.50
2018-08-30T10:26:27.589Z,19.50
2018-08-30T10:28:55.785Z,19.60
2018-08-30T10:31:23.987Z,19.50
2018-08-30T10:33:52.293Z,19.50
2018-08-30T10:36:22.071Z,19.40
2018-08-30T10:38:50.217Z,19.40
2018-08-30T10:41:18.634Z,19.40
2018-08-30T10:43:46.799Z,19.30
2018-08-30T10:46:15.032Z,19.30
2018-08-30T10:48:43.281Z,19.30
2018-08-30T10:51:11.704Z,19.30
2018-08-30T10:53:39.897Z,19.40
2018-08-30T10:56:08.124Z,19.50
2018-08-30T10:58:36.350Z,19.60
2018-08-30T11:01:04.639Z,19.60
2018-08-30T11:03:32.846Z,19.60
2018-08-30T11:06:01.047Z,19.70
2018-08-30T11:08:29.400Z,19.90
2018-08-30T11:10:57.558Z,20.20
2018-08-30T11:13:25.924Z,20.60
2018-08-30T11:15:54.909Z,20.80
2018-08-30T11:18:23.067Z,20.70
2018-08-30T11:20:51.341Z,20.50
2018-08-30T11:23:19.535Z,20.30
2018-08-30T11:25:47.751Z,20.10
2018-08-30T11:28:16.093Z,19.90
2018-08-30T11:30:44.291Z,19.80
2018-08-30T11:33:12.637Z,19.70
2018-08-30T11:35:40.913Z,19.60
2018-08-30T11:38:09.126Z,19.50
2018-08-30T11:40:37.421Z,19.40
2018-08-30T11:43:05.732Z,19.40
2018-08-30T11:45:34.013Z,19.30
2018-08-30T11:48:02.203Z,19.50
2018-08-30T11:50:30.457Z,19.70
2018-08-30T11:52:58.701Z,19.90
2018-08-30T11:55:26.952Z,19.90
2018-08-30T11:57:55.183Z,19.90
2018-08-30T12:00:24.924Z,19.90
2018-08-30T12:02:53.109Z,20.10
2018-08-30T12:05:21.296Z,20.40
2018-08-30T12:07:50.632Z,20.50
2018-08-30T12:10:20.652Z,20.60
2018-08-30T12:12:48.715Z,20.60
2018-08-30T12:15:16.838Z,20.60
2018-08-30T12:17:45.078Z,20.60
2018-08-30T12:20:13.663Z,20.60
2018-08-30T12:22:41.923Z,20.70
2018-08-30T12:25:10.212Z,20.90
2018-08-30T12:27:38.592Z,21.00
2018-08-30T12:30:06.812Z,21.00
2018-08-30T12:32:35.083Z,21.00
2018-08-30T12:35:03.227Z,21.00
2018-08-30T12:37:31.361Z,21.00
2018-08-30T12:39:59.851Z,20.90
2018-08-30T12:42:28.037Z,20.90
2018-08-30T12:44:56.156Z,21.00
2018-08-30T12:47:24.387Z,21.00
2018-08-30T12:49:52.753Z,20.80
2018-08-30T12:52:20.983Z,20.50
2018-08-30T12:54:49.155Z,20.40
2018-08-30T12:57:17.239Z,20.30
2018-08-30T12:59:45.420Z,20.30
2018-08-30T13:02:13.770Z,20.10
2018-08-30T13:04:42.758Z,20.10
2018-08-30T13:07:11.418Z,20.10
2018-08-30T13:09:39.554Z,20.20
2018-08-30T13:12:08.197Z,20.20
2018-08-30T13:14:36.103Z,20.20
2018-08-30T13:17:04.138Z,20.00
2018-08-30T13:19:32.649Z,20.00
2018-08-30T13:22:00.918Z,20.10
2018-08-30T13:24:29.035Z,20.30
2018-08-30T13:26:58.822Z,20.40
2018-08-30T13:29:27.095Z,20.60
2018-08-30T13:31:55.395Z,20.60
2018-08-30T13:34:28.241Z,20.50
2018-08-30T13:36:56.559Z,20.40
2018-08-30T13:39:24.909Z,20.30
2018-08-30T13:41:54.047Z,20.40
2018-08-30T13:44:22.265Z,20.50
2018-08-30T13:46:50.842Z,20.60
2018-08-30T13:49:18.875Z,20.70
2018-08-30T13:51:47.281Z,20.60
2018-08-30T13:54:15.452Z,20.50
2018-08-30T13:56:43.543Z,20.50
2018-08-30T13:59:12.096Z,20.50
2018-08-30T14:01:40.319Z,20.50
2018-08-30T14:04:09.329Z,20.40
2018-08-30T14:06:37.377Z,20.20
2018-08-30T14:09:07.484Z,20.20
2018-08-30T14:11:35.983Z,20.10
2018-08-30T14:14:04.053Z,20.00
2018-08-30T14:16:33.963Z,19.90
2018-08-30T14:19:02.367Z,19.90
2018-08-30T14:21:30.351Z,19.80
2018-08-30T14:23:58.541Z,19.80
2018-08-30T14:26:26.873Z,19.70
2018-08-30T14:28:55.026Z,19.70
2018-08-30T14:31:24.477Z,19.60
2018-08-30T14:33:53.352Z,19.50
2018-08-30T14:36:21.533Z,19.50
2018-08-30T14:38:49.760Z,19.50
2018-08-30T14:41:18.135Z,19.50
2018-08-30T14:43:46.222Z,19.60
2018-08-30T14:46:14.325Z,19.70
2018-08-30T14:48:42.545Z,19.80
2018-08-30T14:51:10.748Z,19.90
2018-08-30T14:53:39.087Z,20.00
2018-08-30T14:56:07.228Z,20.10
2018-08-30T14:58:35.384Z,20.10
2018-08-30T15:01:03.545Z,20.20
2018-08-30T15:03:38.418Z,20.20
2018-08-30T15:06:06.581Z,20.20
2018-08-30T15:08:34.729Z,20.30
2018-08-30T15:11:02.875Z,20.30
2018-08-30T15:13:31.167Z,20.30
2018-08-30T15:15:59.468Z,20.30
2018-08-30T15:18:27.597Z,20.20
2018-08-30T15:20:55.964Z,20.20
2018-08-30T15:23:24.142Z,20.10
2018-08-30T15:25:52.347Z,20.10
2018-08-30T15:28:20.846Z,20.10
2018-08-30T15:30:49.011Z,20.10
2018-08-30T15:33:17.259Z,20.10
2018-08-30T15:35:45.764Z,20.10
2018-08-30T15:38:14.021Z,20.00
2018-08-30T15:40:42.355Z,20.00
2018-08-30T15:43:10.558Z,20.00
2018-08-30T15:45:40.269Z,20.10
2018-08-30T15:48:08.528Z,20.10
2018-08-30T15:50:40.369Z,20.10
2018-08-30T15:53:11.755Z,20.10
2018-08-30T15:55:41.157Z,20.00
2018-08-30T15:58:09.291Z,19.90
2018-08-30T16:00:38.077Z,19.80
2018-08-30T16:03:06.455Z,19.60
2018-08-30T16:05:34.602Z,19.40
2018-08-30T16:08:02.794Z,19.30
2018-08-30T16:10:31.091Z,19.10
2018-08-30T16:13:00.683Z,19.00
2018-08-30T16:15:29.049Z,18.90
2018-08-30T16:17:57.209Z,18.80
2018-08-30T16:20:32.287Z,18.80
2018-08-30T16:23:07.415Z,18.80
2018-08-30T16:25:35.797Z,18.80
2018-08-30T16:28:04.298Z,18.80
2018-08-30T16:30:32.643Z,18.90
2018-08-30T16:33:00.658Z,18.90
2018-08-30T16:35:28.861Z,19.00
2018-08-30T16:37:57.734Z,19.00
2018-08-30T16:40:26.027Z,19.10
2018-08-30T16:42:54.213Z,19.10
2018-08-30T16:45:22.410Z,19.10
2018-08-30T16:47:50.617Z,19.10
2018-08-30T16:50:18.811Z,19.10
2018-08-30T16:52:47.046Z,19.10
2018-08-30T16:55:15.218Z,19.10
2018-08-30T16:57:44.241Z,19.10
2018-08-30T17:00:13.203Z,19.10
2018-08-30T17:02:41.400Z,19.00
2018-08-30T17:05:09.815Z,19.00
2018-08-30T17:07:39.008Z,18.90
2018-08-30T17:10:07.322Z,19.00
2018-08-30T17:12:36.321Z,18.90
2018-08-30T17:15:04.935Z,18.90
2018-08-30T17:17:34.467Z,18.90
2018-08-30T17:20:02.753Z,18.80
2018-08-30T17:22:31.029Z,18.70
2018-08-30T17:24:59.306Z,18.70
2018-08-30T17:27:27.573Z,18.70
2018-08-30T17:29:55.744Z,18.60
2018-08-30T17:32:24.057Z,18.60
2018-08-30T17:34:52.948Z,18.50
2018-08-30T17:37:21.338Z,18.40
2018-08-30T17:39:50.767Z,18.30
2018-08-30T17:42:19.926Z,18.30
2018-08-30T17:44:48.276Z,18.20
2018-08-30T17:47:16.489Z,18.10
2018-08-30T17:49:44.748Z,18.10
2018-08-30T17:52:13.016Z,18.00
2018-08-30T17:54:41.300Z,18.00
2018-08-30T17:57:09.519Z,17.90
2018-08-30T17:59:38.230Z,17.80
2018-08-30T18:02:06.994Z,17.70
2018-08-30T18:04:35.226Z,17.70
2018-08-30T18:07:03.454Z,17.70
2018-08-30T18:09:31.697Z,17.60
2018-08-30T18:11:59.875Z,17.60
2018-08-30T18:14:28.923Z,17.60
2018-08-30T18:16:57.337Z,17.60
2018-08-30T18:19:25.513Z,17.60
2018-08-30T18:21:53.775Z,17.50
2018-08-30T18:24:24.405Z,17.50
2018-08-30T18:26:52.726Z,17.40
2018-08-30T18:29:21.166Z,17.40
2018-08-30T18:31:50.467Z,17.40
2018-08-30T18:34:18.879Z,17.40
2018-08-30T18:36:47.145Z,17.40
2018-08-30T18:39:16.490Z,17.40
2018-08-30T18:41:45.287Z,17.40
2018-08-30T18:44:14.858Z,17.40
2018-08-30T18:46:44.199Z,17.40
2018-08-30T18:49:12.639Z,17.40
2018-08-30T18:51:41.241Z,17.40
2018-08-30T18:54:11.292Z,17.40
2018-08-30T18:56:39.558Z,17.40
2018-08-30T18:59:07.856Z,17.40
2018-08-30T19:01:37.540Z,17.40
2018-08-30T19:04:06.727Z,17.40
2018-08-30T19:06:35.377Z,17.40
2018-08-30T19:09:04.649Z,17.40
2018-08-30T19:11:33.201Z,17.40
2018-08-30T19:14:01.339Z,17.40
2018-08-30T19:16:36.222Z,17.40
2018-08-30T19:19:10.761Z,17.40
2018-08-30T19:21:39.167Z,17.40
2018-08-30T19:24:11.146Z,17.40
2018-08-30T19:26:40.859Z,17.40
2018-08-30T19:29:09.837Z,17.40
2018-08-30T19:31:38.095Z,17.40
2018-08-30T19:34:06.650Z,17.40
2018-08-30T19:36:37.790Z,17.40
2018-08-30T19:39:08.853Z,17.40
2018-08-30T19:41:37.135Z,17.40
2018-08-30T19:44:05.553Z,17.40
2018-08-30T19:46:33.735Z,17.40
2018-08-30T19:49:02.682Z,17.40
2018-08-30T19:51:30.856Z,17.40
2018-08-30T19:53:59.149Z,17.40
2018-08-30T19:56:27.283Z,17.30
2018-08-30T19:58:55.521Z,17.30
2018-08-30T20:01:24.024Z,17.30
2018-08-30T20:03:52.491Z,17.30
2018-08-30T20:06:20.851Z,17.30
2018-08-30T20:08:49.493Z,17.30
2018-08-30T20:11:17.666Z,17.30
2018-08-30T20:13:45.953Z,17.20
2018-08-30T20:16:14.157Z,17.20
2018-08-30T20:18:42.727Z,17.20
2018-08-30T20:21:11.049Z,17.20
2018-08-30T20:23:39.287Z,17.20
2018-08-30T20:26:08.735Z,17.10
2018-08-30T20:28:37.271Z,17.20
2018-08-30T20:31:05.554Z,17.10
2018-08-30T20:33:33.859Z,17.10
2018-08-30T20:36:02.179Z,17.10
2018-08-30T20:38:31.048Z,17.10
2018-08-30T20:40:59.229Z,17.10
2018-08-30T20:43:27.507Z,17.10
2018-08-30T20:45:55.674Z,17.10
2018-08-30T20:48:24.507Z,17.10
2018-08-30T20:50:52.727Z,17.00
2018-08-30T20:53:20.940Z,17.10
2018-08-30T20:55:49.056Z,17.10
2018-08-30T20:58:17.286Z,17.00
2018-08-30T21:00:45.486Z,17.00
2018-08-30T21:03:13.729Z,17.10
2018-08-30T21:05:42.043Z,17.10
2018-08-30T21:08:10.931Z,17.10
2018-08-30T21:10:39.055Z,17.10
2018-08-30T21:13:09.329Z,17.10
2018-08-30T21:15:37.434Z,17.10
2018-08-30T21:18:06.516Z,17.10
2018-08-30T21:20:35.629Z,17.10
2018-08-30T21:23:03.824Z,17.10
2018-08-30T21:25:31.959Z,17.10
2018-08-30T21:28:01.599Z,17.10
2018-08-30T21:30:29.740Z,17.10
2018-08-30T21:32:57.872Z,17.00
2018-08-30T21:35:26.003Z,17.10
2018-08-30T21:37:54.189Z,17.00
2018-08-30T21:40:22.393Z,17.00
2018-08-30T21:42:50.525Z,17.00
2018-08-30T21:45:18.902Z,17.00
2018-08-30T21:47:47.806Z,17.00
2018-08-30T21:50:15.961Z,17.00
2018-08-30T21:52:44.078Z,17.00
2018-08-30T21:55:12.701Z,17.00
2018-08-30T21:57:42.049Z,16.90
2018-08-30T22:00:10.273Z,16.90
2018-08-30T22:02:38.426Z,16.90
2018-08-30T22:05:06.550Z,16.90
2018-08-30T22:07:34.977Z,16.90
2018-08-30T22:10:03.275Z,16.90
2018-08-30T22:12:31.492Z,16.90
2018-08-30T22:14:59.694Z,16.80
2018-08-30T22:17:27.853Z,16.90
2018-08-30T22:19:56.385Z,16.90
2018-08-30T22:22:24.532Z,16.80
2018-08-30T22:24:52.704Z,16.80
2018-08-30T22:27:20.900Z,16.80
2018-08-30T22:29:49.179Z,16.80
2018-08-30T22:32:17.352Z,16.80
2018-08-30T22:34:45.571Z,16.80
2018-08-30T22:37:13.679Z,16.80
2018-08-30T22:39:42.418Z,16.70
2018-08-30T22:42:10.607Z,16.70
2018-08-30T22:44:38.736Z,16.70
2018-08-30T22:47:06.880Z,16.70
2018-08-30T22:49:35.119Z,16.60
2018-08-30T22:52:04.838Z,16.60
2018-08-30T22:54:34.234Z,16.60
2018-08-30T22:57:02.376Z,16.50
2018-08-30T22:59:30.573Z,16.50
2018-08-30T23:01:58.750Z,16.50
2018-08-30T23:04:26.957Z,16.50
2018-08-30T23:06:56.670Z,16.40
2018-08-30T23:09:25.449Z,16.40
2018-08-30T23:11:53.654Z,16.30
2018-08-30T23:14:21.808Z,16.20
2018-08-30T23:16:49.918Z,16.20
2018-08-30T23:19:18.167Z,16.10
2018-08-30T23:21:46.343Z,16.10
2018-08-30T23:24:15.486Z,16.10
2018-08-30T23:26:43.846Z,16.10
2018-08-30T23:29:11.940Z,16.00
2018-08-30T23:31:40.286Z,16.00
2018-08-30T23:34:08.478Z,16.00
2018-08-30T23:36:36.738Z,16.00
2018-08-30T23:39:07.725Z,16.00
2018-08-30T23:41:36.042Z,15.90
2018-08-30T23:44:04.196Z,15.90
2018-08-30T23:46:32.305Z,15.90
2018-08-30T23:49:00.394Z,15.90
2018-08-30T23:51:29.027Z,15.80
2018-08-30T23:53:57.219Z,15.80
2018-08-30T23:56:25.501Z,15.80
2018-08-30T23:59:05.088Z,15.70
